sensor_id;sensor_type;location;lat;lon;timestamp;temperature;humidity
9329;DHT22;4703;48.748;19.142;2022-12-29T00:00:19;-1.80;99.90
9329;DHT22;4703;48.748;19.142;2022-12-29T00:02:46;-1.80;99.90
9329;DHT22;4703;48.748;19.142;2022-12-29T00:05:13;-1.80;99.90
9329;DHT22;4703;48.748;19.142;2022-12-29T00:07:41;-1.90;99.90
9329;DHT22;4703;48.748;19.142;2022-12-29T00:10:08;-1.90;99.90
9329;DHT22;4703;48.748;19.142;2022-12-29T00:12:35;-1.80;99.90
9329;DHT22;4703;48.748;19.142;2022-12-29T00:15:22;-1.70;99.90
9329;DHT22;4703;48.748;19.142;2022-12-29T00:18:05;-1.80;99.90
9329;DHT22;4703;48.748;19.142;2022-12-29T00:20:34;-1.70;99.90
9329;DHT22;4703;48.748;19.142;2022-12-29T00:23:20;-1.80;99.90
9329;DHT22;4703;48.748;19.142;2022-12-29T00:26:13;-1.70;99.90
9329;DHT22;4703;48.748;19.142;2022-12-29T00:29:00;-1.80;99.90
9329;DHT22;4703;48.748;19.142;2022-12-29T00:31:45;-1.70;99.90
9329;DHT22;4703;48.748;19.142;2022-12-29T00:34:31;-1.80;99.90
9329;DHT22;4703;48.748;19.142;2022-12-29T00:37:17;-1.90;99.90
9329;DHT22;4703;48.748;19.142;2022-12-29T00:40:04;-1.80;99.90
9329;DHT22;4703;48.748;19.142;2022-12-29T00:42:50;-1.80;99.90
9329;DHT22;4703;48.748;19.142;2022-12-29T00:45:35;-0.30;99.90
9329;DHT22;4703;48.748;19.142;2022-12-29T00:48:02;-1.80;99.90
9329;DHT22;4703;48.748;19.142;2022-12-29T00:50:29;-1.80;99.90
9329;DHT22;4703;48.748;19.142;2022-12-29T00:52:56;-1.90;99.90
9329;DHT22;4703;48.748;19.142;2022-12-29T00:55:23;-1.90;99.90
9329;DHT22;4703;48.748;19.142;2022-12-29T00:57:50;1.80;99.90
9329;DHT22;4703;48.748;19.142;2022-12-29T01:00:17;-2.00;99.90
9329;DHT22;4703;48.748;19.142;2022-12-29T01:02:44;-2.10;99.90
9329;DHT22;4703;48.748;19.142;2022-12-29T01:05:11;-2.10;99.90
9329;DHT22;4703;48.748;19.142;2022-12-29T01:07:38;-1.90;99.90
9329;DHT22;4703;48.748;19.142;2022-12-29T01:10:06;-2.00;99.90
9329;DHT22;4703;48.748;19.142;2022-12-29T01:12:36;-2.00;99.90
9329;DHT22;4703;48.748;19.142;2022-12-29T01:15:13;-1.90;99.90
9329;DHT22;4703;48.748;19.142;2022-12-29T01:17:41;-1.90;99.90
9329;DHT22;4703;48.748;19.142;2022-12-29T01:20:09;-1.80;99.90
9329;DHT22;4703;48.748;19.142;2022-12-29T01:22:37;-2.00;99.90
9329;DHT22;4703;48.748;19.142;2022-12-29T01:25:05;-1.90;99.90
9329;DHT22;4703;48.748;19.142;2022-12-29T01:27:32;-1.90;99.90
9329;DHT22;4703;48.748;19.142;2022-12-29T01:32:27;-1.90;99.90
9329;DHT22;4703;48.748;19.142;2022-12-29T01:34:54;-1.90;99.90
9329;DHT22;4703;48.748;19.142;2022-12-29T01:37:20;-2.00;99.90
9329;DHT22;4703;48.748;19.142;2022-12-29T01:39:47;-2.00;99.90
9329;DHT22;4703;48.748;19.142;2022-12-29T01:42:17;-2.20;99.90
9329;DHT22;4703;48.748;19.142;2022-12-29T01:47:35;-1.50;99.90
9329;DHT22;4703;48.748;19.142;2022-12-29T01:50:20;-2.00;99.90
9329;DHT22;4703;48.748;19.142;2022-12-29T01:53:06;-2.00;99.90
9329;DHT22;4703;48.748;19.142;2022-12-29T01:55:47;-2.00;99.90
9329;DHT22;4703;48.748;19.142;2022-12-29T01:58:19;-2.00;99.90
9329;DHT22;4703;48.748;19.142;2022-12-29T02:00:48;-1.90;99.90
9329;DHT22;4703;48.748;19.142;2022-12-29T02:03:16;-1.80;99.90
9329;DHT22;4703;48.748;19.142;2022-12-29T02:06:08;-1.60;99.90
9329;DHT22;4703;48.748;19.142;2022-12-29T02:08:40;-1.60;99.90
9329;DHT22;4703;48.748;19.142;2022-12-29T02:11:07;-1.70;99.90
9329;DHT22;4703;48.748;19.142;2022-12-29T02:13:34;-1.60;99.90
9329;DHT22;4703;48.748;19.142;2022-12-29T02:22:12;-1.50;99.90
9329;DHT22;4703;48.748;19.142;2022-12-29T02:36:44;-1.30;99.90
9329;DHT22;4703;48.748;19.142;2022-12-29T02:39:25;-1.30;99.90
9329;DHT22;4703;48.748;19.142;2022-12-29T02:42:10;-1.30;99.90
9329;DHT22;4703;48.748;19.142;2022-12-29T02:44:57;-1.30;99.90
9329;DHT22;4703;48.748;19.142;2022-12-29T02:47:38;-1.20;99.90
9329;DHT22;4703;48.748;19.142;2022-12-29T02:50:58;-1.20;99.90
9329;DHT22;4703;48.748;19.142;2022-12-29T02:53:14;-1.10;99.90
9329;DHT22;4703;48.748;19.142;2022-12-29T02:55:50;-1.10;99.90
9329;DHT22;4703;48.748;19.142;2022-12-29T02:58:21;-1.10;99.90
9329;DHT22;4703;48.748;19.142;2022-12-29T03:07:20;-0.90;99.90
9329;DHT22;4703;48.748;19.142;2022-12-29T03:10:11;-0.80;99.90
9329;DHT22;4703;48.748;19.142;2022-12-29T03:13:05;-0.80;99.90
9329;DHT22;4703;48.748;19.142;2022-12-29T03:16:00;-0.80;99.90
9329;DHT22;4703;48.748;19.142;2022-12-29T03:24:22;-0.70;99.90
9329;DHT22;4703;48.748;19.142;2022-12-29T03:26:54;-0.70;99.90
9329;DHT22;4703;48.748;19.142;2022-12-29T03:29:27;-0.80;99.90
9329;DHT22;4703;48.748;19.142;2022-12-29T03:31:57;-0.70;99.90
9329;DHT22;4703;48.748;19.142;2022-12-29T03:34:25;-0.70;99.90
9329;DHT22;4703;48.748;19.142;2022-12-29T03:37:02;-0.70;99.90
9329;DHT22;4703;48.748;19.142;2022-12-29T03:39:37;-0.70;99.90
9329;DHT22;4703;48.748;19.142;2022-12-29T03:42:08;-0.60;99.90
9329;DHT22;4703;48.748;19.142;2022-12-29T03:44:39;-0.50;99.90
9329;DHT22;4703;48.748;19.142;2022-12-29T03:47:10;-0.50;99.90
9329;DHT22;4703;48.748;19.142;2022-12-29T03:49:38;-0.50;99.90
9329;DHT22;4703;48.748;19.142;2022-12-29T03:52:05;-0.40;99.90
9329;DHT22;4703;48.748;19.142;2022-12-29T03:54:32;0.80;99.90
9329;DHT22;4703;48.748;19.142;2022-12-29T03:56:59;-0.40;99.90
9329;DHT22;4703;48.748;19.142;2022-12-29T03:59:26;-0.50;99.90
9329;DHT22;4703;48.748;19.142;2022-12-29T04:01:53;-0.40;99.90
9329;DHT22;4703;48.748;19.142;2022-12-29T04:04:21;-0.40;99.90
9329;DHT22;4703;48.748;19.142;2022-12-29T04:06:48;-0.40;99.90
9329;DHT22;4703;48.748;19.142;2022-12-29T04:09:15;-0.40;99.90
9329;DHT22;4703;48.748;19.142;2022-12-29T04:11:43;-0.40;99.90
9329;DHT22;4703;48.748;19.142;2022-12-29T04:14:10;-0.40;99.90
9329;DHT22;4703;48.748;19.142;2022-12-29T04:16:37;-0.40;99.90
9329;DHT22;4703;48.748;19.142;2022-12-29T04:19:06;-0.40;99.90
9329;DHT22;4703;48.748;19.142;2022-12-29T04:21:34;-0.30;99.90
9329;DHT22;4703;48.748;19.142;2022-12-29T04:24:01;-0.30;99.90
9329;DHT22;4703;48.748;19.142;2022-12-29T04:26:28;-0.40;99.90
9329;DHT22;4703;48.748;19.142;2022-12-29T04:28:55;-0.30;99.90
9329;DHT22;4703;48.748;19.142;2022-12-29T04:31:22;-0.30;99.90
9329;DHT22;4703;48.748;19.142;2022-12-29T04:33:49;-0.20;99.90
9329;DHT22;4703;48.748;19.142;2022-12-29T04:36:16;-0.20;99.90
9329;DHT22;4703;48.748;19.142;2022-12-29T04:38:44;-0.20;99.90
9329;DHT22;4703;48.748;19.142;2022-12-29T04:41:11;-0.20;99.90
9329;DHT22;4703;48.748;19.142;2022-12-29T04:43:38;-0.20;99.90
9329;DHT22;4703;48.748;19.142;2022-12-29T04:46:05;-0.20;99.90
9329;DHT22;4703;48.748;19.142;2022-12-29T04:48:33;-0.30;99.90
9329;DHT22;4703;48.748;19.142;2022-12-29T04:51:00;-0.20;99.90
9329;DHT22;4703;48.748;19.142;2022-12-29T04:53:27;-0.20;99.90
9329;DHT22;4703;48.748;19.142;2022-12-29T04:55:54;-0.20;99.90
9329;DHT22;4703;48.748;19.142;2022-12-29T04:58:22;-0.30;99.90
9329;DHT22;4703;48.748;19.142;2022-12-29T05:00:50;-0.20;99.90
9329;DHT22;4703;48.748;19.142;2022-12-29T05:03:18;-0.20;99.90
9329;DHT22;4703;48.748;19.142;2022-12-29T05:05:45;-0.20;99.90
9329;DHT22;4703;48.748;19.142;2022-12-29T05:08:12;-0.20;99.90
9329;DHT22;4703;48.748;19.142;2022-12-29T05:10:39;-0.20;99.90
9329;DHT22;4703;48.748;19.142;2022-12-29T05:13:06;-0.10;99.90
9329;DHT22;4703;48.748;19.142;2022-12-29T05:15:33;-0.20;99.90
9329;DHT22;4703;48.748;19.142;2022-12-29T05:18:00;-0.20;99.90
9329;DHT22;4703;48.748;19.142;2022-12-29T05:20:27;-0.10;99.90
9329;DHT22;4703;48.748;19.142;2022-12-29T05:22:54;0.00;99.90
9329;DHT22;4703;48.748;19.142;2022-12-29T05:25:21;0.00;99.90
9329;DHT22;4703;48.748;19.142;2022-12-29T05:27:48;-0.10;99.90
9329;DHT22;4703;48.748;19.142;2022-12-29T05:30:15;0.00;99.90
9329;DHT22;4703;48.748;19.142;2022-12-29T05:32:42;0.00;99.90
9329;DHT22;4703;48.748;19.142;2022-12-29T05:35:12;0.00;99.90
9329;DHT22;4703;48.748;19.142;2022-12-29T05:37:40;-0.10;99.90
9329;DHT22;4703;48.748;19.142;2022-12-29T05:40:07;-0.10;99.90
9329;DHT22;4703;48.748;19.142;2022-12-29T05:42:35;0.00;99.90
9329;DHT22;4703;48.748;19.142;2022-12-29T05:45:02;-0.10;99.90
9329;DHT22;4703;48.748;19.142;2022-12-29T05:47:29;0.00;99.90
9329;DHT22;4703;48.748;19.142;2022-12-29T05:49:56;0.00;99.90
9329;DHT22;4703;48.748;19.142;2022-12-29T05:52:23;0.00;99.90
9329;DHT22;4703;48.748;19.142;2022-12-29T05:54:50;3.30;99.90
9329;DHT22;4703;48.748;19.142;2022-12-29T05:57:17;0.10;99.90
9329;DHT22;4703;48.748;19.142;2022-12-29T05:59:44;0.00;99.90
9329;DHT22;4703;48.748;19.142;2022-12-29T06:02:11;0.00;99.90
9329;DHT22;4703;48.748;19.142;2022-12-29T06:04:38;0.10;99.90
9329;DHT22;4703;48.748;19.142;2022-12-29T06:07:05;0.10;99.90
9329;DHT22;4703;48.748;19.142;2022-12-29T06:09:32;0.10;99.90
9329;DHT22;4703;48.748;19.142;2022-12-29T06:11:59;0.10;99.90
9329;DHT22;4703;48.748;19.142;2022-12-29T06:14:26;0.10;99.90
9329;DHT22;4703;48.748;19.142;2022-12-29T06:16:53;0.10;99.90
9329;DHT22;4703;48.748;19.142;2022-12-29T06:19:20;0.00;99.90
9329;DHT22;4703;48.748;19.142;2022-12-29T06:21:47;0.10;99.90
9329;DHT22;4703;48.748;19.142;2022-12-29T06:24:14;0.10;99.90
9329;DHT22;4703;48.748;19.142;2022-12-29T06:26:41;2.70;99.90
9329;DHT22;4703;48.748;19.142;2022-12-29T06:29:08;0.10;99.90
9329;DHT22;4703;48.748;19.142;2022-12-29T06:31:35;0.10;99.90
9329;DHT22;4703;48.748;19.142;2022-12-29T06:34:02;0.30;99.90
9329;DHT22;4703;48.748;19.142;2022-12-29T06:36:34;0.10;99.90
9329;DHT22;4703;48.748;19.142;2022-12-29T06:39:01;0.20;99.90
9329;DHT22;4703;48.748;19.142;2022-12-29T06:41:28;0.10;99.90
9329;DHT22;4703;48.748;19.142;2022-12-29T06:43:58;0.20;99.90
9329;DHT22;4703;48.748;19.142;2022-12-29T06:46:25;2.90;99.90
9329;DHT22;4703;48.748;19.142;2022-12-29T06:48:52;0.20;99.90
9329;DHT22;4703;48.748;19.142;2022-12-29T06:51:18;0.30;99.90
9329;DHT22;4703;48.748;19.142;2022-12-29T06:53:45;0.30;99.90
9329;DHT22;4703;48.748;19.142;2022-12-29T06:56:12;0.30;99.90
9329;DHT22;4703;48.748;19.142;2022-12-29T06:58:39;0.20;99.90
9329;DHT22;4703;48.748;19.142;2022-12-29T07:01:06;0.30;99.90
9329;DHT22;4703;48.748;19.142;2022-12-29T07:03:33;0.30;99.90
9329;DHT22;4703;48.748;19.142;2022-12-29T07:06:00;0.30;99.90
9329;DHT22;4703;48.748;19.142;2022-12-29T07:08:27;0.30;99.90
9329;DHT22;4703;48.748;19.142;2022-12-29T07:10:54;0.30;99.90
9329;DHT22;4703;48.748;19.142;2022-12-29T07:13:21;0.30;99.90
9329;DHT22;4703;48.748;19.142;2022-12-29T07:15:48;0.40;99.90
9329;DHT22;4703;48.748;19.142;2022-12-29T07:18:15;0.30;99.90
9329;DHT22;4703;48.748;19.142;2022-12-29T07:20:42;0.40;99.90
9329;DHT22;4703;48.748;19.142;2022-12-29T07:23:10;0.40;99.90
9329;DHT22;4703;48.748;19.142;2022-12-29T07:25:37;0.40;99.90
9329;DHT22;4703;48.748;19.142;2022-12-29T07:28:04;0.50;99.90
9329;DHT22;4703;48.748;19.142;2022-12-29T07:30:31;0.50;99.90
9329;DHT22;4703;48.748;19.142;2022-12-29T07:32:58;0.40;99.90
9329;DHT22;4703;48.748;19.142;2022-12-29T07:35:25;0.50;99.90
9329;DHT22;4703;48.748;19.142;2022-12-29T07:37:52;0.60;99.90
9329;DHT22;4703;48.748;19.142;2022-12-29T07:40:19;0.50;99.90
9329;DHT22;4703;48.748;19.142;2022-12-29T07:42:46;0.50;99.90
9329;DHT22;4703;48.748;19.142;2022-12-29T07:45:13;0.40;99.90
9329;DHT22;4703;48.748;19.142;2022-12-29T07:47:40;0.50;99.90
9329;DHT22;4703;48.748;19.142;2022-12-29T07:50:09;0.60;99.90
9329;DHT22;4703;48.748;19.142;2022-12-29T07:52:36;2.90;99.90
9329;DHT22;4703;48.748;19.142;2022-12-29T07:55:03;0.70;99.90
9329;DHT22;4703;48.748;19.142;2022-12-29T07:57:34;0.60;99.90
9329;DHT22;4703;48.748;19.142;2022-12-29T08:00:01;0.60;99.90
9329;DHT22;4703;48.748;19.142;2022-12-29T08:02:30;0.70;99.90
9329;DHT22;4703;48.748;19.142;2022-12-29T08:04:57;0.70;99.90
9329;DHT22;4703;48.748;19.142;2022-12-29T08:07:24;0.20;99.90
9329;DHT22;4703;48.748;19.142;2022-12-29T08:09:51;0.70;99.90
9329;DHT22;4703;48.748;19.142;2022-12-29T08:12:18;0.70;99.90
9329;DHT22;4703;48.748;19.142;2022-12-29T08:14:45;0.80;99.90
9329;DHT22;4703;48.748;19.142;2022-12-29T08:17:12;0.80;99.90
9329;DHT22;4703;48.748;19.142;2022-12-29T08:19:39;3.20;99.90
9329;DHT22;4703;48.748;19.142;2022-12-29T08:22:06;0.80;99.90
9329;DHT22;4703;48.748;19.142;2022-12-29T08:24:33;0.90;99.90
9329;DHT22;4703;48.748;19.142;2022-12-29T08:27:00;0.80;99.90
9329;DHT22;4703;48.748;19.142;2022-12-29T08:29:41;0.90;99.90
9329;DHT22;4703;48.748;19.142;2022-12-29T08:32:08;0.90;99.90
9329;DHT22;4703;48.748;19.142;2022-12-29T08:34:35;0.90;99.90
9329;DHT22;4703;48.748;19.142;2022-12-29T08:37:02;0.90;99.90
9329;DHT22;4703;48.748;19.142;2022-12-29T08:39:29;2.30;99.90
9329;DHT22;4703;48.748;19.142;2022-12-29T08:41:56;0.90;99.90
9329;DHT22;4703;48.748;19.142;2022-12-29T08:44:23;1.00;99.90
9329;DHT22;4703;48.748;19.142;2022-12-29T08:46:50;1.00;99.90
9329;DHT22;4703;48.748;19.142;2022-12-29T08:49:17;1.10;99.90
9329;DHT22;4703;48.748;19.142;2022-12-29T08:51:44;1.10;99.90
9329;DHT22;4703;48.748;19.142;2022-12-29T08:54:12;1.10;99.90
9329;DHT22;4703;48.748;19.142;2022-12-29T08:56:39;1.10;99.90
9329;DHT22;4703;48.748;19.142;2022-12-29T08:59:06;1.10;99.90
9329;DHT22;4703;48.748;19.142;2022-12-29T09:01:33;1.00;99.90
9329;DHT22;4703;48.748;19.142;2022-12-29T09:04:03;1.00;99.90
9329;DHT22;4703;48.748;19.142;2022-12-29T09:06:40;1.20;99.90
9329;DHT22;4703;48.748;19.142;2022-12-29T09:09:07;1.20;99.90
9329;DHT22;4703;48.748;19.142;2022-12-29T09:11:34;1.10;99.90
9329;DHT22;4703;48.748;19.142;2022-12-29T09:14:02;1.20;99.90
9329;DHT22;4703;48.748;19.142;2022-12-29T09:16:29;1.20;99.90
9329;DHT22;4703;48.748;19.142;2022-12-29T09:18:56;1.30;99.90
9329;DHT22;4703;48.748;19.142;2022-12-29T09:21:23;1.20;99.90
9329;DHT22;4703;48.748;19.142;2022-12-29T09:23:50;1.20;99.90
9329;DHT22;4703;48.748;19.142;2022-12-29T09:26:17;1.20;99.90
9329;DHT22;4703;48.748;19.142;2022-12-29T09:28:44;4.10;99.90
9329;DHT22;4703;48.748;19.142;2022-12-29T09:31:13;1.30;99.90
9329;DHT22;4703;48.748;19.142;2022-12-29T09:33:40;1.30;99.90
9329;DHT22;4703;48.748;19.142;2022-12-29T09:36:08;1.30;99.90
9329;DHT22;4703;48.748;19.142;2022-12-29T09:38:35;1.30;99.90
9329;DHT22;4703;48.748;19.142;2022-12-29T09:41:28;1.30;99.90
9329;DHT22;4703;48.748;19.142;2022-12-29T09:47:14;1.40;99.90
9329;DHT22;4703;48.748;19.142;2022-12-29T09:49:54;1.40;99.90
9329;DHT22;4703;48.748;19.142;2022-12-29T09:52:26;1.40;99.90
9329;DHT22;4703;48.748;19.142;2022-12-29T09:55:20;1.50;99.90
9329;DHT22;4703;48.748;19.142;2022-12-29T09:57:58;1.50;99.90
9329;DHT22;4703;48.748;19.142;2022-12-29T10:00:52;1.60;99.90
9329;DHT22;4703;48.748;19.142;2022-12-29T10:03:26;1.60;99.90
9329;DHT22;4703;48.748;19.142;2022-12-29T10:07:01;1.60;99.90
9329;DHT22;4703;48.748;19.142;2022-12-29T10:15:18;1.70;99.90
9329;DHT22;4703;48.748;19.142;2022-12-29T10:18:16;1.70;99.90
9329;DHT22;4703;48.748;19.142;2022-12-29T10:23:53;1.70;99.90
9329;DHT22;4703;48.748;19.142;2022-12-29T10:26:40;1.70;99.90
9329;DHT22;4703;48.748;19.142;2022-12-29T10:32:20;1.70;99.90
9329;DHT22;4703;48.748;19.142;2022-12-29T10:34:55;1.70;99.90
9329;DHT22;4703;48.748;19.142;2022-12-29T10:37:41;1.70;99.90
9329;DHT22;4703;48.748;19.142;2022-12-29T10:43:27;1.80;99.90
9329;DHT22;4703;48.748;19.142;2022-12-29T10:46:02;1.80;99.90
9329;DHT22;4703;48.748;19.142;2022-12-29T10:48:38;1.80;99.90
9329;DHT22;4703;48.748;19.142;2022-12-29T10:51:07;1.80;99.90
9329;DHT22;4703;48.748;19.142;2022-12-29T10:53:40;1.80;99.90
9329;DHT22;4703;48.748;19.142;2022-12-29T10:56:39;1.80;99.90
9329;DHT22;4703;48.748;19.142;2022-12-29T10:59:31;1.90;99.90
9329;DHT22;4703;48.748;19.142;2022-12-29T11:04:58;2.00;99.90
9329;DHT22;4703;48.748;19.142;2022-12-29T11:07:32;2.00;99.90
9329;DHT22;4703;48.748;19.142;2022-12-29T11:10:28;2.10;99.90
9329;DHT22;4703;48.748;19.142;2022-12-29T11:13:16;2.10;99.90
9329;DHT22;4703;48.748;19.142;2022-12-29T11:15:52;2.20;99.90
9329;DHT22;4703;48.748;19.142;2022-12-29T11:18:27;2.20;99.90
9329;DHT22;4703;48.748;19.142;2022-12-29T11:21:01;2.20;99.90
9329;DHT22;4703;48.748;19.142;2022-12-29T11:23:38;2.20;99.90
9329;DHT22;4703;48.748;19.142;2022-12-29T11:26:16;2.30;99.90
9329;DHT22;4703;48.748;19.142;2022-12-29T11:31:56;2.30;99.90
9329;DHT22;4703;48.748;19.142;2022-12-29T11:34:31;2.30;99.90
9329;DHT22;4703;48.748;19.142;2022-12-29T11:39:34;2.40;99.90
9329;DHT22;4703;48.748;19.142;2022-12-29T11:42:06;2.40;99.90
9329;DHT22;4703;48.748;19.142;2022-12-29T11:44:43;2.50;99.90
9329;DHT22;4703;48.748;19.142;2022-12-29T11:47:29;2.40;99.90
9329;DHT22;4703;48.748;19.142;2022-12-29T11:50:04;2.40;99.90
9329;DHT22;4703;48.748;19.142;2022-12-29T11:52:35;2.40;99.90
9329;DHT22;4703;48.748;19.142;2022-12-29T11:55:17;2.40;99.90
9329;DHT22;4703;48.748;19.142;2022-12-29T11:57:46;2.40;99.90
9329;DHT22;4703;48.748;19.142;2022-12-29T12:00:18;2.40;99.90
9329;DHT22;4703;48.748;19.142;2022-12-29T12:03:00;2.40;99.90
9329;DHT22;4703;48.748;19.142;2022-12-29T12:05:54;5.00;99.90
9329;DHT22;4703;48.748;19.142;2022-12-29T12:11:37;2.40;99.90
9329;DHT22;4703;48.748;19.142;2022-12-29T12:14:14;2.40;99.90
9329;DHT22;4703;48.748;19.142;2022-12-29T12:16:54;2.40;99.90
9329;DHT22;4703;48.748;19.142;2022-12-29T12:19:39;2.50;99.90
9329;DHT22;4703;48.748;19.142;2022-12-29T12:25:12;2.50;99.90
9329;DHT22;4703;48.748;19.142;2022-12-29T12:27:56;2.50;99.90
9329;DHT22;4703;48.748;19.142;2022-12-29T12:30:29;2.50;99.90
9329;DHT22;4703;48.748;19.142;2022-12-29T12:51:30;2.60;99.90
9329;DHT22;4703;48.748;19.142;2022-12-29T12:57:22;2.70;99.90
9329;DHT22;4703;48.748;19.142;2022-12-29T13:00:09;2.70;99.90
9329;DHT22;4703;48.748;19.142;2022-12-29T13:13:38;2.80;99.90
9329;DHT22;4703;48.748;19.142;2022-12-29T13:19:48;2.80;99.90
9329;DHT22;4703;48.748;19.142;2022-12-29T13:22:43;2.80;99.90
9329;DHT22;4703;48.748;19.142;2022-12-29T13:28:42;2.80;99.90
9329;DHT22;4703;48.748;19.142;2022-12-29T13:37:47;4.80;99.90
9329;DHT22;4703;48.748;19.142;2022-12-29T13:40:21;2.80;99.90
9329;DHT22;4703;48.748;19.142;2022-12-29T13:42:52;2.90;99.90
9329;DHT22;4703;48.748;19.142;2022-12-29T13:45:22;2.90;99.90
9329;DHT22;4703;48.748;19.142;2022-12-29T13:48:14;2.90;99.90
9329;DHT22;4703;48.748;19.142;2022-12-29T13:50:50;2.90;99.90
9329;DHT22;4703;48.748;19.142;2022-12-29T13:56:39;3.00;99.90
9329;DHT22;4703;48.748;19.142;2022-12-29T13:59:23;3.00;99.90
9329;DHT22;4703;48.748;19.142;2022-12-29T14:04:59;2.90;99.90
9329;DHT22;4703;48.748;19.142;2022-12-29T14:07:36;3.00;99.90
9329;DHT22;4703;48.748;19.142;2022-12-29T14:10:05;3.00;99.90
9329;DHT22;4703;48.748;19.142;2022-12-29T14:17:38;3.00;99.90
9329;DHT22;4703;48.748;19.142;2022-12-29T14:20:17;2.90;99.90
9329;DHT22;4703;48.748;19.142;2022-12-29T14:31:02;2.90;99.90
9329;DHT22;4703;48.748;19.142;2022-12-29T14:37:00;2.80;99.90
9329;DHT22;4703;48.748;19.142;2022-12-29T14:39:44;2.90;99.90
9329;DHT22;4703;48.748;19.142;2022-12-29T14:44:53;2.90;99.90
9329;DHT22;4703;48.748;19.142;2022-12-29T14:50:06;2.80;99.90
9329;DHT22;4703;48.748;19.142;2022-12-29T14:52:58;2.80;99.90
9329;DHT22;4703;48.748;19.142;2022-12-29T14:58:25;2.80;99.90
9329;DHT22;4703;48.748;19.142;2022-12-29T15:00:55;2.70;99.90
9329;DHT22;4703;48.748;19.142;2022-12-29T15:03:38;2.70;99.90
9329;DHT22;4703;48.748;19.142;2022-12-29T15:06:15;2.60;99.90
9329;DHT22;4703;48.748;19.142;2022-12-29T15:09:17;2.70;99.90
9329;DHT22;4703;48.748;19.142;2022-12-29T15:12:35;2.60;99.90
9329;DHT22;4703;48.748;19.142;2022-12-29T15:17:54;2.60;99.90
9329;DHT22;4703;48.748;19.142;2022-12-29T15:20:26;2.80;99.90
9329;DHT22;4703;48.748;19.142;2022-12-29T15:23:02;2.50;99.90
9329;DHT22;4703;48.748;19.142;2022-12-29T15:25:33;2.40;99.90
9329;DHT22;4703;48.748;19.142;2022-12-29T15:28:02;2.40;99.90
9329;DHT22;4703;48.748;19.142;2022-12-29T15:30:31;2.40;99.90
9329;DHT22;4703;48.748;19.142;2022-12-29T15:32:58;2.30;99.90
9329;DHT22;4703;48.748;19.142;2022-12-29T15:37:59;2.20;99.90
9329;DHT22;4703;48.748;19.142;2022-12-29T15:40:32;2.20;99.90
9329;DHT22;4703;48.748;19.142;2022-12-29T15:45:54;2.20;99.90
9329;DHT22;4703;48.748;19.142;2022-12-29T15:48:23;2.20;99.90
9329;DHT22;4703;48.748;19.142;2022-12-29T15:50:51;2.10;99.90
9329;DHT22;4703;48.748;19.142;2022-12-29T15:53:23;2.10;99.90
9329;DHT22;4703;48.748;19.142;2022-12-29T15:56:05;2.10;99.90
9329;DHT22;4703;48.748;19.142;2022-12-29T15:58:48;2.10;99.90
9329;DHT22;4703;48.748;19.142;2022-12-29T16:03:54;2.10;99.90
9329;DHT22;4703;48.748;19.142;2022-12-29T16:06:34;2.00;99.90
9329;DHT22;4703;48.748;19.142;2022-12-29T16:09:05;2.00;99.90
9329;DHT22;4703;48.748;19.142;2022-12-29T16:11:46;1.90;99.90
9329;DHT22;4703;48.748;19.142;2022-12-29T16:14:18;1.90;99.90
9329;DHT22;4703;48.748;19.142;2022-12-29T16:16:48;1.90;99.90
9329;DHT22;4703;48.748;19.142;2022-12-29T16:19:28;1.90;99.90
9329;DHT22;4703;48.748;19.142;2022-12-29T16:22:00;1.80;99.90
9329;DHT22;4703;48.748;19.142;2022-12-29T16:24:32;1.80;99.90
9329;DHT22;4703;48.748;19.142;2022-12-29T16:29:35;1.80;99.90
9329;DHT22;4703;48.748;19.142;2022-12-29T16:32:02;1.80;99.90
9329;DHT22;4703;48.748;19.142;2022-12-29T16:34:33;1.80;99.90
9329;DHT22;4703;48.748;19.142;2022-12-29T16:37:32;1.80;99.90
9329;DHT22;4703;48.748;19.142;2022-12-29T16:42:46;1.90;99.90
9329;DHT22;4703;48.748;19.142;2022-12-29T16:50:36;1.90;99.90
9329;DHT22;4703;48.748;19.142;2022-12-29T16:53:05;1.90;99.90
9329;DHT22;4703;48.748;19.142;2022-12-29T16:55:33;1.90;99.90
9329;DHT22;4703;48.748;19.142;2022-12-29T16:58:00;1.90;99.90
9329;DHT22;4703;48.748;19.142;2022-12-29T17:00:36;1.90;99.90
9329;DHT22;4703;48.748;19.142;2022-12-29T17:03:03;1.90;99.90
9329;DHT22;4703;48.748;19.142;2022-12-29T17:05:30;1.80;99.90
9329;DHT22;4703;48.748;19.142;2022-12-29T17:07:57;1.90;99.90
9329;DHT22;4703;48.748;19.142;2022-12-29T17:10:28;2.00;99.90
9329;DHT22;4703;48.748;19.142;2022-12-29T17:13:13;1.80;99.90
9329;DHT22;4703;48.748;19.142;2022-12-29T17:15:40;2.00;99.90
9329;DHT22;4703;48.748;19.142;2022-12-29T17:18:07;2.00;99.90
9329;DHT22;4703;48.748;19.142;2022-12-29T17:20:39;2.00;99.90
9329;DHT22;4703;48.748;19.142;2022-12-29T17:23:15;2.00;99.90
9329;DHT22;4703;48.748;19.142;2022-12-29T17:25:53;2.00;99.90
9329;DHT22;4703;48.748;19.142;2022-12-29T17:28:21;2.00;99.90
9329;DHT22;4703;48.748;19.142;2022-12-29T17:30:52;2.00;99.90
9329;DHT22;4703;48.748;19.142;2022-12-29T17:33:21;1.90;99.90
9329;DHT22;4703;48.748;19.142;2022-12-29T17:35:48;2.10;99.90
9329;DHT22;4703;48.748;19.142;2022-12-29T17:38:29;2.00;99.90
9329;DHT22;4703;48.748;19.142;2022-12-29T17:40:58;2.90;99.90
9329;DHT22;4703;48.748;19.142;2022-12-29T17:43:25;2.00;99.90
9329;DHT22;4703;48.748;19.142;2022-12-29T17:46:00;2.00;99.90
9329;DHT22;4703;48.748;19.142;2022-12-29T17:48:27;2.00;99.90
9329;DHT22;4703;48.748;19.142;2022-12-29T17:50:56;1.90;99.90
9329;DHT22;4703;48.748;19.142;2022-12-29T17:53:27;2.00;99.90
9329;DHT22;4703;48.748;19.142;2022-12-29T17:55:55;2.00;99.90
9329;DHT22;4703;48.748;19.142;2022-12-29T17:58:27;3.70;99.90
9329;DHT22;4703;48.748;19.142;2022-12-29T18:00:57;2.00;99.90
9329;DHT22;4703;48.748;19.142;2022-12-29T18:03:29;2.00;99.90
9329;DHT22;4703;48.748;19.142;2022-12-29T18:05:58;2.00;99.90
9329;DHT22;4703;48.748;19.142;2022-12-29T18:08:25;2.00;99.90
9329;DHT22;4703;48.748;19.142;2022-12-29T18:10:55;2.00;99.90
9329;DHT22;4703;48.748;19.142;2022-12-29T18:13:28;2.00;99.90
9329;DHT22;4703;48.748;19.142;2022-12-29T18:16:11;2.00;99.90
9329;DHT22;4703;48.748;19.142;2022-12-29T18:18:39;2.20;99.90
9329;DHT22;4703;48.748;19.142;2022-12-29T18:21:17;2.10;99.90
9329;DHT22;4703;48.748;19.142;2022-12-29T18:23:45;2.00;99.90
9329;DHT22;4703;48.748;19.142;2022-12-29T18:26:16;2.00;99.90
9329;DHT22;4703;48.748;19.142;2022-12-29T18:28:52;2.00;99.90
9329;DHT22;4703;48.748;19.142;2022-12-29T18:31:23;2.00;99.90
9329;DHT22;4703;48.748;19.142;2022-12-29T18:33:52;2.00;99.90
9329;DHT22;4703;48.748;19.142;2022-12-29T18:36:20;2.00;99.90
9329;DHT22;4703;48.748;19.142;2022-12-29T18:38:47;2.00;99.90
9329;DHT22;4703;48.748;19.142;2022-12-29T18:41:21;5.00;99.90
9329;DHT22;4703;48.748;19.142;2022-12-29T18:43:55;2.00;99.90
9329;DHT22;4703;48.748;19.142;2022-12-29T18:46:22;2.00;99.90
9329;DHT22;4703;48.748;19.142;2022-12-29T18:48:50;2.00;99.90
9329;DHT22;4703;48.748;19.142;2022-12-29T18:51:20;2.10;99.90
9329;DHT22;4703;48.748;19.142;2022-12-29T18:53:49;2.00;99.90
9329;DHT22;4703;48.748;19.142;2022-12-29T18:56:16;2.00;99.90
9329;DHT22;4703;48.748;19.142;2022-12-29T18:58:43;2.00;99.90
9329;DHT22;4703;48.748;19.142;2022-12-29T19:01:22;2.00;99.90
9329;DHT22;4703;48.748;19.142;2022-12-29T19:03:52;2.00;99.90
9329;DHT22;4703;48.748;19.142;2022-12-29T19:06:20;2.00;99.90
9329;DHT22;4703;48.748;19.142;2022-12-29T19:08:47;2.00;99.90
9329;DHT22;4703;48.748;19.142;2022-12-29T19:11:14;2.00;99.90
9329;DHT22;4703;48.748;19.142;2022-12-29T19:13:41;2.00;99.90
9329;DHT22;4703;48.748;19.142;2022-12-29T19:16:17;2.00;99.90